sensor_id;sensor_type;location;lat;lon;timestamp;temperature;humidity
21861;DHT22;11095;48.066;8.540;2023-12-20T00:00:20;3.40;99.90
21861;DHT22;11095;48.066;8.540;2023-12-20T00:02:45;3.40;99.90
21861;DHT22;11095;48.066;8.540;2023-12-20T00:05:13;3.50;99.90
21861;DHT22;11095;48.066;8.540;2023-12-20T00:07:39;3.50;99.90
21861;DHT22;11095;48.066;8.540;2023-12-20T00:10:05;3.60;99.90
21861;DHT22;11095;48.066;8.540;2023-12-20T00:12:31;3.60;99.90
21861;DHT22;11095;48.066;8.540;2023-12-20T00:14:56;3.60;99.90
21861;DHT22;11095;48.066;8.540;2023-12-20T00:17:22;3.60;99.90
21861;DHT22;11095;48.066;8.540;2023-12-20T00:19:47;3.60;99.90
21861;DHT22;11095;48.066;8.540;2023-12-20T00:22:13;3.60;99.90
21861;DHT22;11095;48.066;8.540;2023-12-20T00:24:38;3.60;99.90
21861;DHT22;11095;48.066;8.540;2023-12-20T00:27:04;3.60;99.90
21861;DHT22;11095;48.066;8.540;2023-12-20T00:29:30;3.60;99.90
21861;DHT22;11095;48.066;8.540;2023-12-20T00:31:55;3.60;99.90
21861;DHT22;11095;48.066;8.540;2023-12-20T00:34:21;3.60;99.90
21861;DHT22;11095;48.066;8.540;2023-12-20T00:36:46;3.60;99.90
21861;DHT22;11095;48.066;8.540;2023-12-20T00:39:12;3.60;99.90
21861;DHT22;11095;48.066;8.540;2023-12-20T00:41:38;3.50;99.90
21861;DHT22;11095;48.066;8.540;2023-12-20T00:44:04;3.50;99.90
21861;DHT22;11095;48.066;8.540;2023-12-20T00:46:29;3.50;99.90
21861;DHT22;11095;48.066;8.540;2023-12-20T00:48:55;3.50;99.90
21861;DHT22;11095;48.066;8.540;2023-12-20T00:51:21;3.50;99.90
21861;DHT22;11095;48.066;8.540;2023-12-20T00:53:48;3.50;99.90
21861;DHT22;11095;48.066;8.540;2023-12-20T00:56:14;3.50;99.90
21861;DHT22;11095;48.066;8.540;2023-12-20T00:58:40;3.50;99.90
21861;DHT22;11095;48.066;8.540;2023-12-20T01:01:05;3.50;99.90
21861;DHT22;11095;48.066;8.540;2023-12-20T01:03:31;3.60;99.90
21861;DHT22;11095;48.066;8.540;2023-12-20T01:05:56;3.60;99.90
21861;DHT22;11095;48.066;8.540;2023-12-20T01:08:22;3.60;99.90
21861;DHT22;11095;48.066;8.540;2023-12-20T01:10:48;3.60;99.90
21861;DHT22;11095;48.066;8.540;2023-12-20T01:13:14;3.60;99.90
21861;DHT22;11095;48.066;8.540;2023-12-20T01:15:39;3.60;99.90
21861;DHT22;11095;48.066;8.540;2023-12-20T01:18:05;3.60;99.90
21861;DHT22;11095;48.066;8.540;2023-12-20T01:20:30;3.60;99.90
21861;DHT22;11095;48.066;8.540;2023-12-20T01:22:56;3.70;99.90
21861;DHT22;11095;48.066;8.540;2023-12-20T01:25:22;3.70;99.90
21861;DHT22;11095;48.066;8.540;2023-12-20T01:27:47;3.70;99.90
21861;DHT22;11095;48.066;8.540;2023-12-20T01:30:13;3.80;99.90
21861;DHT22;11095;48.066;8.540;2023-12-20T01:32:39;3.80;99.90
21861;DHT22;11095;48.066;8.540;2023-12-20T01:35:04;3.80;99.90
21861;DHT22;11095;48.066;8.540;2023-12-20T01:37:30;3.80;99.90
21861;DHT22;11095;48.066;8.540;2023-12-20T01:39:56;3.80;99.90
21861;DHT22;11095;48.066;8.540;2023-12-20T01:42:21;3.80;99.90
21861;DHT22;11095;48.066;8.540;2023-12-20T01:44:47;3.80;99.90
21861;DHT22;11095;48.066;8.540;2023-12-20T01:47:13;3.80;99.90
21861;DHT22;11095;48.066;8.540;2023-12-20T01:49:39;3.80;99.90
21861;DHT22;11095;48.066;8.540;2023-12-20T01:52:05;3.80;99.90
21861;DHT22;11095;48.066;8.540;2023-12-20T01:54:31;3.90;99.90
21861;DHT22;11095;48.066;8.540;2023-12-20T01:56:57;3.90;99.90
21861;DHT22;11095;48.066;8.540;2023-12-20T01:59:23;3.90;99.90
21861;DHT22;11095;48.066;8.540;2023-12-20T02:01:48;3.90;99.90
21861;DHT22;11095;48.066;8.540;2023-12-20T02:04:15;3.90;99.90
21861;DHT22;11095;48.066;8.540;2023-12-20T02:06:41;3.90;99.90
21861;DHT22;11095;48.066;8.540;2023-12-20T02:09:08;3.90;99.90
21861;DHT22;11095;48.066;8.540;2023-12-20T02:11:34;3.90;99.90
21861;DHT22;11095;48.066;8.540;2023-12-20T02:14:01;3.90;99.90
21861;DHT22;11095;48.066;8.540;2023-12-20T02:16:27;3.90;99.90
21861;DHT22;11095;48.066;8.540;2023-12-20T02:18:52;3.90;99.90
21861;DHT22;11095;48.066;8.540;2023-12-20T02:21:20;3.90;99.90
21861;DHT22;11095;48.066;8.540;2023-12-20T02:23:45;3.90;99.90
21861;DHT22;11095;48.066;8.540;2023-12-20T02:26:11;3.90;99.90
21861;DHT22;11095;48.066;8.540;2023-12-20T02:28:39;3.90;99.90
21861;DHT22;11095;48.066;8.540;2023-12-20T02:31:04;4.00;99.90
21861;DHT22;11095;48.066;8.540;2023-12-20T02:33:30;4.00;99.90
21861;DHT22;11095;48.066;8.540;2023-12-20T02:35:55;4.00;99.90
21861;DHT22;11095;48.066;8.540;2023-12-20T02:38:21;3.90;99.90
21861;DHT22;11095;48.066;8.540;2023-12-20T02:40:47;4.00;99.90
21861;DHT22;11095;48.066;8.540;2023-12-20T02:43:12;4.00;99.90
21861;DHT22;11095;48.066;8.540;2023-12-20T02:45:38;4.00;99.90
21861;DHT22;11095;48.066;8.540;2023-12-20T02:48:04;4.10;99.90
21861;DHT22;11095;48.066;8.540;2023-12-20T02:50:29;4.10;99.90
21861;DHT22;11095;48.066;8.540;2023-12-20T02:52:55;4.10;99.90
21861;DHT22;11095;48.066;8.540;2023-12-20T02:55:21;4.10;99.90
21861;DHT22;11095;48.066;8.540;2023-12-20T02:57:46;4.20;99.90
21861;DHT22;11095;48.066;8.540;2023-12-20T03:00:12;4.20;99.90
21861;DHT22;11095;48.066;8.540;2023-12-20T03:02:38;4.20;99.90
21861;DHT22;11095;48.066;8.540;2023-12-20T03:05:04;4.10;99.90
21861;DHT22;11095;48.066;8.540;2023-12-20T03:07:29;4.10;99.90
21861;DHT22;11095;48.066;8.540;2023-12-20T03:09:55;4.10;99.90
21861;DHT22;11095;48.066;8.540;2023-12-20T03:12:20;4.10;99.90
21861;DHT22;11095;48.066;8.540;2023-12-20T03:14:46;4.10;99.90
21861;DHT22;11095;48.066;8.540;2023-12-20T03:17:11;4.10;99.90
21861;DHT22;11095;48.066;8.540;2023-12-20T03:19:37;4.10;99.90
21861;DHT22;11095;48.066;8.540;2023-12-20T03:22:03;4.10;99.90
21861;DHT22;11095;48.066;8.540;2023-12-20T03:24:28;4.10;99.90
21861;DHT22;11095;48.066;8.540;2023-12-20T03:26:54;4.10;99.90
21861;DHT22;11095;48.066;8.540;2023-12-20T03:29:19;4.10;99.90
21861;DHT22;11095;48.066;8.540;2023-12-20T03:31:45;4.00;99.90
21861;DHT22;11095;48.066;8.540;2023-12-20T03:34:11;4.00;99.90
21861;DHT22;11095;48.066;8.540;2023-12-20T03:36:37;4.00;99.90
21861;DHT22;11095;48.066;8.540;2023-12-20T03:39:02;4.00;99.90
21861;DHT22;11095;48.066;8.540;2023-12-20T03:41:28;4.00;99.90
21861;DHT22;11095;48.066;8.540;2023-12-20T03:43:53;4.00;99.90
21861;DHT22;11095;48.066;8.540;2023-12-20T03:46:19;4.00;99.90
21861;DHT22;11095;48.066;8.540;2023-12-20T03:48:44;4.00;99.90
21861;DHT22;11095;48.066;8.540;2023-12-20T03:51:10;3.90;99.90
21861;DHT22;11095;48.066;8.540;2023-12-20T03:53:36;3.90;99.90
21861;DHT22;11095;48.066;8.540;2023-12-20T03:56:01;3.90;99.90
21861;DHT22;11095;48.066;8.540;2023-12-20T03:58:27;3.90;99.90
21861;DHT22;11095;48.066;8.540;2023-12-20T04:00:52;3.90;99.90
21861;DHT22;11095;48.066;8.540;2023-12-20T04:03:18;3.80;99.90
21861;DHT22;11095;48.066;8.540;2023-12-20T04:05:43;3.80;99.90
21861;DHT22;11095;48.066;8.540;2023-12-20T04:08:09;3.80;99.90
21861;DHT22;11095;48.066;8.540;2023-12-20T04:10:35;3.80;99.90
21861;DHT22;11095;48.066;8.540;2023-12-20T04:13:03;3.80;99.90
21861;DHT22;11095;48.066;8.540;2023-12-20T04:15:28;3.70;99.90
21861;DHT22;11095;48.066;8.540;2023-12-20T04:17:54;3.70;99.90
21861;DHT22;11095;48.066;8.540;2023-12-20T04:20:19;3.70;99.90
21861;DHT22;11095;48.066;8.540;2023-12-20T04:22:45;3.70;99.90
21861;DHT22;11095;48.066;8.540;2023-12-20T04:25:11;3.70;99.90
21861;DHT22;11095;48.066;8.540;2023-12-20T04:27:36;3.70;99.90
21861;DHT22;11095;48.066;8.540;2023-12-20T04:30:02;3.70;99.90
21861;DHT22;11095;48.066;8.540;2023-12-20T04:32:27;3.60;99.90
21861;DHT22;11095;48.066;8.540;2023-12-20T04:34:53;3.60;99.90
21861;DHT22;11095;48.066;8.540;2023-12-20T04:37:18;3.60;99.90
21861;DHT22;11095;48.066;8.540;2023-12-20T04:39:44;3.60;99.90
21861;DHT22;11095;48.066;8.540;2023-12-20T04:42:10;3.60;99.90
21861;DHT22;11095;48.066;8.540;2023-12-20T04:44:35;3.60;99.90
21861;DHT22;11095;48.066;8.540;2023-12-20T04:47:01;3.60;99.90
21861;DHT22;11095;48.066;8.540;2023-12-20T04:49:27;3.50;99.90
21861;DHT22;11095;48.066;8.540;2023-12-20T04:51:52;3.50;99.90
21861;DHT22;11095;48.066;8.540;2023-12-20T04:54:18;3.50;99.90
21861;DHT22;11095;48.066;8.540;2023-12-20T04:56:43;3.50;99.90
21861;DHT22;11095;48.066;8.540;2023-12-20T04:59:09;3.40;99.90
21861;DHT22;11095;48.066;8.540;2023-12-20T05:01:34;3.40;99.90
21861;DHT22;11095;48.066;8.540;2023-12-20T05:04:00;3.40;99.90
21861;DHT22;11095;48.066;8.540;2023-12-20T05:06:25;3.40;99.90
21861;DHT22;11095;48.066;8.540;2023-12-20T05:08:51;3.40;99.90
21861;DHT22;11095;48.066;8.540;2023-12-20T05:11:16;3.40;99.90
21861;DHT22;11095;48.066;8.540;2023-12-20T05:13:42;3.40;99.90
21861;DHT22;11095;48.066;8.540;2023-12-20T05:16:08;3.40;99.90
21861;DHT22;11095;48.066;8.540;2023-12-20T05:18:34;3.40;99.90
21861;DHT22;11095;48.066;8.540;2023-12-20T05:21:00;3.40;99.90
21861;DHT22;11095;48.066;8.540;2023-12-20T05:23:25;3.30;99.90
21861;DHT22;11095;48.066;8.540;2023-12-20T05:25:51;3.40;99.90
21861;DHT22;11095;48.066;8.540;2023-12-20T05:28:17;3.30;99.90
21861;DHT22;11095;48.066;8.540;2023-12-20T05:30:42;3.30;99.90
21861;DHT22;11095;48.066;8.540;2023-12-20T05:33:08;3.30;99.90
21861;DHT22;11095;48.066;8.540;2023-12-20T05:35:34;3.30;99.90
21861;DHT22;11095;48.066;8.540;2023-12-20T05:38:00;3.30;99.90
21861;DHT22;11095;48.066;8.540;2023-12-20T05:40:25;3.30;99.90
21861;DHT22;11095;48.066;8.540;2023-12-20T05:42:51;3.30;99.90
21861;DHT22;11095;48.066;8.540;2023-12-20T05:45:17;3.30;99.90
21861;DHT22;11095;48.066;8.540;2023-12-20T05:47:42;3.30;99.90
21861;DHT22;11095;48.066;8.540;2023-12-20T05:50:08;3.30;99.90
21861;DHT22;11095;48.066;8.540;2023-12-20T05:52:34;3.20;99.90
21861;DHT22;11095;48.066;8.540;2023-12-20T05:55:00;3.30;99.90
21861;DHT22;11095;48.066;8.540;2023-12-20T05:57:27;3.20;99.90
21861;DHT22;11095;48.066;8.540;2023-12-20T05:59:52;3.20;99.90
21861;DHT22;11095;48.066;8.540;2023-12-20T06:02:18;3.30;99.90
21861;DHT22;11095;48.066;8.540;2023-12-20T06:04:44;3.30;99.90
21861;DHT22;11095;48.066;8.540;2023-12-20T06:07:12;3.30;99.90
21861;DHT22;11095;48.066;8.540;2023-12-20T06:09:37;3.30;99.90
21861;DHT22;11095;48.066;8.540;2023-12-20T06:12:03;3.30;99.90
21861;DHT22;11095;48.066;8.540;2023-12-20T06:14:29;3.30;99.90
21861;DHT22;11095;48.066;8.540;2023-12-20T06:16:56;3.30;99.90
21861;DHT22;11095;48.066;8.540;2023-12-20T06:19:22;3.30;99.90
21861;DHT22;11095;48.066;8.540;2023-12-20T06:21:47;3.30;99.90
21861;DHT22;11095;48.066;8.540;2023-12-20T06:24:13;3.30;99.90
21861;DHT22;11095;48.066;8.540;2023-12-20T06:26:38;3.30;99.90
21861;DHT22;11095;48.066;8.540;2023-12-20T06:29:04;3.30;99.90
21861;DHT22;11095;48.066;8.540;2023-12-20T06:31:30;3.40;99.90
21861;DHT22;11095;48.066;8.540;2023-12-20T06:33:55;3.40;99.90
21861;DHT22;11095;48.066;8.540;2023-12-20T06:36:23;3.40;99.90
21861;DHT22;11095;48.066;8.540;2023-12-20T06:38:48;3.40;99.90
21861;DHT22;11095;48.066;8.540;2023-12-20T06:41:15;3.40;99.90
21861;DHT22;11095;48.066;8.540;2023-12-20T06:43:42;3.40;99.90
21861;DHT22;11095;48.066;8.540;2023-12-20T06:46:07;3.40;99.90
21861;DHT22;11095;48.066;8.540;2023-12-20T06:48:34;3.40;99.90
21861;DHT22;11095;48.066;8.540;2023-12-20T06:51:00;3.40;99.90
21861;DHT22;11095;48.066;8.540;2023-12-20T06:53:27;3.40;99.90
21861;DHT22;11095;48.066;8.540;2023-12-20T06:55:53;3.40;99.90
21861;DHT22;11095;48.066;8.540;2023-12-20T06:58:18;3.50;99.90
21861;DHT22;11095;48.066;8.540;2023-12-20T07:00:44;3.50;99.90
21861;DHT22;11095;48.066;8.540;2023-12-20T07:03:09;3.50;99.90
21861;DHT22;11095;48.066;8.540;2023-12-20T07:05:35;3.50;99.90
21861;DHT22;11095;48.066;8.540;2023-12-20T07:08:01;3.50;99.90
21861;DHT22;11095;48.066;8.540;2023-12-20T07:10:26;3.50;99.90
21861;DHT22;11095;48.066;8.540;2023-12-20T07:12:52;3.50;99.90
21861;DHT22;11095;48.066;8.540;2023-12-20T07:15:21;3.60;99.90
21861;DHT22;11095;48.066;8.540;2023-12-20T07:17:46;3.60;99.90
21861;DHT22;11095;48.066;8.540;2023-12-20T07:20:12;3.50;99.90
21861;DHT22;11095;48.066;8.540;2023-12-20T07:22:38;3.50;99.90
21861;DHT22;11095;48.066;8.540;2023-12-20T07:25:04;3.50;99.90
21861;DHT22;11095;48.066;8.540;2023-12-20T07:27:30;3.50;99.90
21861;DHT22;11095;48.066;8.540;2023-12-20T07:29:56;3.40;99.90
21861;DHT22;11095;48.066;8.540;2023-12-20T07:32:21;3.40;99.90
21861;DHT22;11095;48.066;8.540;2023-12-20T07:34:47;3.40;99.90
21861;DHT22;11095;48.066;8.540;2023-12-20T07:37:13;3.40;99.90
21861;DHT22;11095;48.066;8.540;2023-12-20T07:39:42;3.40;99.90
21861;DHT22;11095;48.066;8.540;2023-12-20T07:42:08;3.40;99.90
21861;DHT22;11095;48.066;8.540;2023-12-20T07:44:34;3.40;99.90
21861;DHT22;11095;48.066;8.540;2023-12-20T07:47:01;3.40;99.90
21861;DHT22;11095;48.066;8.540;2023-12-20T07:49:27;3.40;99.90
21861;DHT22;11095;48.066;8.540;2023-12-20T07:51:52;3.40;99.90
21861;DHT22;11095;48.066;8.540;2023-12-20T07:54:18;3.50;99.90
21861;DHT22;11095;48.066;8.540;2023-12-20T07:56:43;3.50;99.90
21861;DHT22;11095;48.066;8.540;2023-12-20T07:59:09;3.50;99.90
21861;DHT22;11095;48.066;8.540;2023-12-20T08:01:35;3.50;99.90
21861;DHT22;11095;48.066;8.540;2023-12-20T08:04:00;3.50;99.90
21861;DHT22;11095;48.066;8.540;2023-12-20T08:06:26;3.60;99.90
21861;DHT22;11095;48.066;8.540;2023-12-20T08:08:51;3.60;99.90
21861;DHT22;11095;48.066;8.540;2023-12-20T08:11:17;3.60;99.90
21861;DHT22;11095;48.066;8.540;2023-12-20T08:13:43;3.60;99.90
21861;DHT22;11095;48.066;8.540;2023-12-20T08:16:08;3.60;99.90
21861;DHT22;11095;48.066;8.540;2023-12-20T08:18:34;3.70;99.90
21861;DHT22;11095;48.066;8.540;2023-12-20T08:21:00;3.90;99.90
21861;DHT22;11095;48.066;8.540;2023-12-20T08:23:26;4.00;99.90
21861;DHT22;11095;48.066;8.540;2023-12-20T08:25:52;4.20;99.90
21861;DHT22;11095;48.066;8.540;2023-12-20T08:28:17;4.30;99.90
21861;DHT22;11095;48.066;8.540;2023-12-20T08:30:43;4.30;99.90
21861;DHT22;11095;48.066;8.540;2023-12-20T08:33:09;4.40;99.90
21861;DHT22;11095;48.066;8.540;2023-12-20T08:35:38;4.50;99.90
21861;DHT22;11095;48.066;8.540;2023-12-20T08:38:04;4.50;99.90
21861;DHT22;11095;48.066;8.540;2023-12-20T08:40:30;4.50;99.90
21861;DHT22;11095;48.066;8.540;2023-12-20T08:42:55;4.50;99.90
21861;DHT22;11095;48.066;8.540;2023-12-20T08:45:21;4.50;99.90
21861;DHT22;11095;48.066;8.540;2023-12-20T08:47:46;4.50;99.90
21861;DHT22;11095;48.066;8.540;2023-12-20T08:50:12;4.40;99.90
21861;DHT22;11095;48.066;8.540;2023-12-20T08:52:38;4.40;99.90
21861;DHT22;11095;48.066;8.540;2023-12-20T08:55:04;4.30;99.90
21861;DHT22;11095;48.066;8.540;2023-12-20T08:57:29;4.40;99.90
21861;DHT22;11095;48.066;8.540;2023-12-20T08:59:57;4.40;99.90
21861;DHT22;11095;48.066;8.540;2023-12-20T09:02:22;4.40;99.90
21861;DHT22;11095;48.066;8.540;2023-12-20T09:04:48;4.40;99.90
21861;DHT22;11095;48.066;8.540;2023-12-20T09:07:24;4.40;99.90
21861;DHT22;11095;48.066;8.540;2023-12-20T09:09:50;4.50;99.90
21861;DHT22;11095;48.066;8.540;2023-12-20T09:12:20;4.60;99.90
21861;DHT22;11095;48.066;8.540;2023-12-20T09:14:46;4.70;99.90
21861;DHT22;11095;48.066;8.540;2023-12-20T09:17:12;5.20;99.90
21861;DHT22;11095;48.066;8.540;2023-12-20T09:19:38;5.40;99.90
21861;DHT22;11095;48.066;8.540;2023-12-20T09:22:04;5.50;99.90
21861;DHT22;11095;48.066;8.540;2023-12-20T09:24:31;5.40;99.90
21861;DHT22;11095;48.066;8.540;2023-12-20T09:26:56;5.40;99.90
21861;DHT22;11095;48.066;8.540;2023-12-20T09:29:22;5.40;99.90
21861;DHT22;11095;48.066;8.540;2023-12-20T09:31:48;5.40;99.90
21861;DHT22;11095;48.066;8.540;2023-12-20T09:34:15;5.30;99.90
21861;DHT22;11095;48.066;8.540;2023-12-20T09:36:42;5.30;99.90
21861;DHT22;11095;48.066;8.540;2023-12-20T09:39:13;5.30;99.90
21861;DHT22;11095;48.066;8.540;2023-12-20T09:41:43;5.30;99.90
21861;DHT22;11095;48.066;8.540;2023-12-20T09:44:15;5.30;99.90
21861;DHT22;11095;48.066;8.540;2023-12-20T09:46:44;5.10;99.90
21861;DHT22;11095;48.066;8.540;2023-12-20T09:49:10;5.10;99.90
21861;DHT22;11095;48.066;8.540;2023-12-20T09:51:36;5.00;99.90
21861;DHT22;11095;48.066;8.540;2023-12-20T09:54:05;4.90;99.90
21861;DHT22;11095;48.066;8.540;2023-12-20T09:56:31;4.90;99.90
21861;DHT22;11095;48.066;8.540;2023-12-20T09:58:57;4.90;99.90
21861;DHT22;11095;48.066;8.540;2023-12-20T10:01:23;4.80;99.90
21861;DHT22;11095;48.066;8.540;2023-12-20T10:03:51;4.90;99.90
21861;DHT22;11095;48.066;8.540;2023-12-20T10:06:19;4.90;99.90
21861;DHT22;11095;48.066;8.540;2023-12-20T10:08:45;4.90;99.90
21861;DHT22;11095;48.066;8.540;2023-12-20T10:11:11;4.80;99.90
21861;DHT22;11095;48.066;8.540;2023-12-20T10:13:40;4.70;99.90
21861;DHT22;11095;48.066;8.540;2023-12-20T10:16:06;4.60;99.90
21861;DHT22;11095;48.066;8.540;2023-12-20T10:18:33;4.60;99.90
21861;DHT22;11095;48.066;8.540;2023-12-20T10:20:59;4.70;99.90
21861;DHT22;11095;48.066;8.540;2023-12-20T10:23:25;4.80;99.90
21861;DHT22;11095;48.066;8.540;2023-12-20T10:25:58;4.90;99.90
21861;DHT22;11095;48.066;8.540;2023-12-20T10:28:24;5.00;99.90
21861;DHT22;11095;48.066;8.540;2023-12-20T10:30:53;5.10;99.90
21861;DHT22;11095;48.066;8.540;2023-12-20T10:33:26;5.20;99.90
21861;DHT22;11095;48.066;8.540;2023-12-20T10:35:52;5.60;99.90
21861;DHT22;11095;48.066;8.540;2023-12-20T10:38:18;5.80;99.90
21861;DHT22;11095;48.066;8.540;2023-12-20T10:40:45;5.90;99.90
21861;DHT22;11095;48.066;8.540;2023-12-20T10:43:11;5.90;99.90
21861;DHT22;11095;48.066;8.540;2023-12-20T10:45:37;6.00;99.90
21861;DHT22;11095;48.066;8.540;2023-12-20T10:48:04;5.90;99.90
21861;DHT22;11095;48.066;8.540;2023-12-20T10:50:31;5.80;99.90
21861;DHT22;11095;48.066;8.540;2023-12-20T10:52:58;5.80;99.90
21861;DHT22;11095;48.066;8.540;2023-12-20T10:55:24;5.80;99.90
21861;DHT22;11095;48.066;8.540;2023-12-20T10:58:00;5.80;99.90
21861;DHT22;11095;48.066;8.540;2023-12-20T11:00:26;5.70;99.90
21861;DHT22;11095;48.066;8.540;2023-12-20T11:02:55;5.70;99.90
21861;DHT22;11095;48.066;8.540;2023-12-20T11:08:32;5.70;99.90
21861;DHT22;11095;48.066;8.540;2023-12-20T11:11:15;5.60;99.90
21861;DHT22;11095;48.066;8.540;2023-12-20T11:13:56;5.70;99.90
21861;DHT22;11095;48.066;8.540;2023-12-20T11:16:23;5.70;99.90
21861;DHT22;11095;48.066;8.540;2023-12-20T11:18:51;5.70;99.90
21861;DHT22;11095;48.066;8.540;2023-12-20T11:21:16;5.60;99.90
21861;DHT22;11095;48.066;8.540;2023-12-20T11:23:42;5.60;99.90
21861;DHT22;11095;48.066;8.540;2023-12-20T11:26:08;5.50;99.90
21861;DHT22;11095;48.066;8.540;2023-12-20T11:28:33;5.30;99.90
21861;DHT22;11095;48.066;8.540;2023-12-20T11:31:01;5.30;99.90
21861;DHT22;11095;48.066;8.540;2023-12-20T11:33:35;5.30;99.90
21861;DHT22;11095;48.066;8.540;2023-12-20T11:36:01;5.30;99.90
21861;DHT22;11095;48.066;8.540;2023-12-20T11:38:35;5.30;99.90
21861;DHT22;11095;48.066;8.540;2023-12-20T11:41:01;5.40;99.90
21861;DHT22;11095;48.066;8.540;2023-12-20T11:43:36;5.50;99.90
21861;DHT22;11095;48.066;8.540;2023-12-20T11:46:07;5.70;99.90
21861;DHT22;11095;48.066;8.540;2023-12-20T11:48:35;5.80;99.90
21861;DHT22;11095;48.066;8.540;2023-12-20T11:51:01;5.80;99.90
21861;DHT22;11095;48.066;8.540;2023-12-20T11:53:28;5.80;99.90
21861;DHT22;11095;48.066;8.540;2023-12-20T11:55:54;5.80;99.90
21861;DHT22;11095;48.066;8.540;2023-12-20T11:58:20;5.80;99.90
21861;DHT22;11095;48.066;8.540;2023-12-20T12:00:45;5.80;99.90
21861;DHT22;11095;48.066;8.540;2023-12-20T12:03:14;5.80;99.90
21861;DHT22;11095;48.066;8.540;2023-12-20T12:05:40;5.70;99.90
21861;DHT22;11095;48.066;8.540;2023-12-20T12:08:06;5.50;99.90
21861;DHT22;11095;48.066;8.540;2023-12-20T12:10:33;5.30;99.90
21861;DHT22;11095;48.066;8.540;2023-12-20T12:12:59;5.20;99.90
21861;DHT22;11095;48.066;8.540;2023-12-20T12:15:25;5.20;99.90
21861;DHT22;11095;48.066;8.540;2023-12-20T12:17:54;5.20;99.90
21861;DHT22;11095;48.066;8.540;2023-12-20T12:20:21;5.20;99.90
21861;DHT22;11095;48.066;8.540;2023-12-20T12:22:57;5.20;99.90
21861;DHT22;11095;48.066;8.540;2023-12-20T12:25:23;5.20;99.90
21861;DHT22;11095;48.066;8.540;2023-12-20T12:27:48;5.20;99.90
21861;DHT22;11095;48.066;8.540;2023-12-20T12:30:16;5.20;99.90
21861;DHT22;11095;48.066;8.540;2023-12-20T12:32:44;5.30;99.90
21861;DHT22;11095;48.066;8.540;2023-12-20T12:35:10;5.30;99.90
21861;DHT22;11095;48.066;8.540;2023-12-20T12:37:38;5.20;99.90
21861;DHT22;11095;48.066;8.540;2023-12-20T12:40:06;5.20;99.90
21861;DHT22;11095;48.066;8.540;2023-12-20T12:42:31;5.30;99.90
21861;DHT22;11095;48.066;8.540;2023-12-20T12:44:57;5.30;99.90
21861;DHT22;11095;48.066;8.540;2023-12-20T12:47:22;5.20;99.90
21861;DHT22;11095;48.066;8.540;2023-12-20T12:49:49;4.90;99.90
21861;DHT22;11095;48.066;8.540;2023-12-20T12:52:16;4.90;99.90
21861;DHT22;11095;48.066;8.540;2023-12-20T12:54:42;4.80;99.90
21861;DHT22;11095;48.066;8.540;2023-12-20T12:57:08;4.70;99.90
21861;DHT22;11095;48.066;8.540;2023-12-20T12:59:33;4.60;99.90
21861;DHT22;11095;48.066;8.540;2023-12-20T13:02:00;4.60;99.90
21861;DHT22;11095;48.066;8.540;2023-12-20T13:04:25;4.50;99.90
21861;DHT22;11095;48.066;8.540;2023-12-20T13:06:51;4.50;99.90
21861;DHT22;11095;48.066;8.540;2023-12-20T13:09:17;4.40;99.90
21861;DHT22;11095;48.066;8.540;2023-12-20T13:11:43;4.30;99.90
21861;DHT22;11095;48.066;8.540;2023-12-20T13:14:09;4.30;99.90
21861;DHT22;11095;48.066;8.540;2023-12-20T13:16:39;4.30;99.90
21861;DHT22;11095;48.066;8.540;2023-12-20T13:19:05;4.30;99.90
21861;DHT22;11095;48.066;8.540;2023-12-20T13:21:30;4.30;99.90
21861;DHT22;11095;48.066;8.540;2023-12-20T13:23:56;4.30;99.90
21861;DHT22;11095;48.066;8.540;2023-12-20T13:26:22;4.30;99.90
21861;DHT22;11095;48.066;8.540;2023-12-20T13:28:47;4.30;99.90
21861;DHT22;11095;48.066;8.540;2023-12-20T13:31:13;4.40;99.90
21861;DHT22;11095;48.066;8.540;2023-12-20T13:33:38;4.40;99.90
21861;DHT22;11095;48.066;8.540;2023-12-20T13:36:06;4.40;99.90
21861;DHT22;11095;48.066;8.540;2023-12-20T13:38:31;4.50;99.90
21861;DHT22;11095;48.066;8.540;2023-12-20T13:40:57;4.50;99.90
21861;DHT22;11095;48.066;8.540;2023-12-20T13:43:24;4.40;99.90
21861;DHT22;11095;48.066;8.540;2023-12-20T13:45:50;4.40;99.90
21861;DHT22;11095;48.066;8.540;2023-12-20T13:48:16;4.40;99.90
21861;DHT22;11095;48.066;8.540;2023-12-20T13:50:41;4.30;99.90
21861;DHT22;11095;48.066;8.540;2023-12-20T13:53:07;4.30;99.90
21861;DHT22;11095;48.066;8.540;2023-12-20T13:55:32;4.20;99.90
21861;DHT22;11095;48.066;8.540;2023-12-20T13:57:58;4.20;99.90
21861;DHT22;11095;48.066;8.540;2023-12-20T14:00:24;4.10;99.90
21861;DHT22;11095;48.066;8.540;2023-12-20T14:02:49;4.10;99.90
21861;DHT22;11095;48.066;8.540;2023-12-20T14:05:16;4.10;99.90
21861;DHT22;11095;48.066;8.540;2023-12-20T14:07:43;4.10;99.90
21861;DHT22;11095;48.066;8.540;2023-12-20T14:10:13;4.10;99.90
21861;DHT22;11095;48.066;8.540;2023-12-20T14:12:39;4.00;99.90
21861;DHT22;11095;48.066;8.540;2023-12-20T14:15:05;4.00;99.90
21861;DHT22;11095;48.066;8.540;2023-12-20T14:17:39;4.00;99.90
21861;DHT22;11095;48.066;8.540;2023-12-20T14:20:06;4.00;99.90
21861;DHT22;11095;48.066;8.540;2023-12-20T14:22:35;4.00;99.90
21861;DHT22;11095;48.066;8.540;2023-12-20T14:25:01;4.00;99.90
21861;DHT22;11095;48.066;8.540;2023-12-20T14:27:28;4.00;99.90
21861;DHT22;11095;48.066;8.540;2023-12-20T14:29:54;4.00;99.90
21861;DHT22;11095;48.066;8.540;2023-12-20T14:32:19;4.00;99.90
21861;DHT22;11095;48.066;8.540;2023-12-20T14:34:45;4.00;99.90
21861;DHT22;11095;48.066;8.540;2023-12-20T14:37:11;4.00;99.90
21861;DHT22;11095;48.066;8.540;2023-12-20T14:39:37;4.00;99.90
21861;DHT22;11095;48.066;8.540;2023-12-20T14:42:09;4.00;99.90
21861;DHT22;11095;48.066;8.540;2023-12-20T14:44:38;3.90;99.90
21861;DHT22;11095;48.066;8.540;2023-12-20T14:47:04;3.90;99.90
21861;DHT22;11095;48.066;8.540;2023-12-20T14:49:30;3.90;99.90
21861;DHT22;11095;48.066;8.540;2023-12-20T14:51:56;3.90;99.90
21861;DHT22;11095;48.066;8.540;2023-12-20T14:54:22;3.90;99.90
21861;DHT22;11095;48.066;8.540;2023-12-20T14:56:47;3.80;99.90
21861;DHT22;11095;48.066;8.540;2023-12-20T14:59:13;3.70;99.90
21861;DHT22;11095;48.066;8.540;2023-12-20T15:01:39;3.70;99.90
21861;DHT22;11095;48.066;8.540;2023-12-20T15:04:08;3.70;99.90
21861;DHT22;11095;48.066;8.540;2023-12-20T15:06:34;3.70;99.90
21861;DHT22;11095;48.066;8.540;2023-12-20T15:09:00;3.60;99.90
21861;DHT22;11095;48.066;8.540;2023-12-20T15:11:26;3.60;99.90
21861;DHT22;11095;48.066;8.540;2023-12-20T15:13:52;3.60;99.90
21861;DHT22;11095;48.066;8.540;2023-12-20T15:16:24;3.50;99.90
21861;DHT22;11095;48.066;8.540;2023-12-20T15:18:51;3.50;99.90
21861;DHT22;11095;48.066;8.540;2023-12-20T15:21:18;3.40;99.90
21861;DHT22;11095;48.066;8.540;2023-12-20T15:23:44;3.40;99.90
21861;DHT22;11095;48.066;8.540;2023-12-20T15:26:19;3.40;99.90
21861;DHT22;11095;48.066;8.540;2023-12-20T15:28:44;3.40;99.90
21861;DHT22;11095;48.066;8.540;2023-12-20T15:31:10;3.30;99.90
21861;DHT22;11095;48.066;8.540;2023-12-20T15:33:36;3.30;99.90
21861;DHT22;11095;48.066;8.540;2023-12-20T15:36:01;3.30;99.90
21861;DHT22;11095;48.066;8.540;2023-12-20T15:38:27;3.20;99.90
21861;DHT22;11095;48.066;8.540;2023-12-20T15:40:52;3.20;99.90